Time;durP1;ratioP1;P1;durP2;ratioP2;P2;SDS_P1;SDS_P2;PMS_P1;PMS_P2;Temp;Humidity;BMP_temperature;BMP_pressure;BME280_temperature;BME280_humidity;BME280_pressure;Samples;Min_cycle;Max_cycle;Signal;HPM_P1;HPM_P2
2022/08/29 00:01:49;;;;;;;2.30;1.60;;;17.80;99.90;;;;;;5095212;28;20800;-77
2022/08/29 00:04:15;;;;;;;1.63;1.43;;;17.80;99.90;;;;;;5094737;28;20444;-77
2022/08/29 00:06:42;;;;;;;1.23;0.70;;;17.80;99.90;;;;;;5094877;28;20936;-77
2022/08/29 00:09:09;;;;;;;2.10;0.97;;;17.80;99.90;;;;;;5095126;28;20448;-77
2022/08/29 00:11:36;;;;;;;1.87;1.47;;;17.80;99.90;;;;;;5095063;28;20459;-77
2022/08/29 00:14:02;;;;;;;2.10;0.90;;;17.80;99.90;;;;;;5095017;28;20466;-77
2022/08/29 00:16:29;;;;;;;1.73;0.87;;;17.80;99.90;;;;;;5094625;28;20468;-77
2022/08/29 00:18:57;;;;;;;1.13;0.90;;;17.70;99.90;;;;;;5094962;28;20443;-77
2022/08/29 00:21:24;;;;;;;3.60;0.97;;;17.70;99.90;;;;;;5094540;28;20821;-77
2022/08/29 00:23:51;;;;;;;1.13;0.97;;;17.70;99.90;;;;;;5094524;28;20834;-77
2022/08/29 00:26:17;;;;;;;1.80;1.13;;;17.70;99.90;;;;;;5094463;28;20472;-77
2022/08/29 00:28:44;;;;;;;4.20;1.20;;;17.60;99.90;;;;;;5094756;28;20444;-77
2022/08/29 00:31:11;;;;;;;0.90;0.80;;;17.60;99.90;;;;;;5094342;28;20818;-77
2022/08/29 00:33:38;;;;;;;1.10;1.03;;;17.60;99.90;;;;;;5094396;28;20970;-77
2022/08/29 00:36:06;;;;;;;0.50;0.50;;;17.50;99.90;;;;;;5094235;28;20479;-77
2022/08/29 00:38:33;;;;;;;3.20;1.17;;;17.50;99.90;;;;;;5095151;28;20444;-77
2022/08/29 00:41:00;;;;;;;1.23;0.77;;;17.50;99.90;;;;;;5094491;28;20459;-77
2022/08/29 00:43:28;;;;;;;3.10;1.10;;;17.50;99.90;;;;;;5094411;28;20467;-77
2022/08/29 00:46:05;;;;;;;1.37;1.07;;;17.40;99.90;;;;;;5094459;28;20447;-77
2022/08/29 00:48:36;;;;;;;0.80;0.80;;;17.40;99.90;;;;;;5094444;28;20435;-77
2022/08/29 00:51:08;;;;;;;1.50;1.40;;;17.40;99.90;;;;;;5094019;28;20440;-77
2022/08/29 00:53:38;;;;;;;2.73;0.80;;;17.40;99.90;;;;;;5094018;28;20904;-77
2022/08/29 00:56:08;;;;;;;0.70;0.60;;;17.30;99.90;;;;;;5094415;28;20468;-77
2022/08/29 00:58:38;;;;;;;0.87;0.77;;;17.30;99.90;;;;;;5094249;28;20440;-77
2022/08/29 01:01:05;;;;;;;2.20;1.20;;;17.30;99.90;;;;;;5094109;28;20440;-77
2022/08/29 01:03:33;;;;;;;2.33;1.20;;;17.30;99.90;;;;;;5094173;28;20819;-77
2022/08/29 01:06:01;;;;;;;4.93;1.40;;;17.30;99.90;;;;;;5094106;28;20448;-76
2022/08/29 01:08:30;;;;;;;2.30;1.37;;;17.30;99.90;;;;;;5094074;28;20471;-76
2022/08/29 01:13:44;;;;;;;2.17;1.30;;;17.20;99.90;;;;;;5093777;28;20399;-77
2022/08/29 01:16:13;;;;;;;1.13;1.03;;;17.20;99.90;;;;;;5093078;28;20468;-77
2022/08/29 01:18:42;;;;;;;1.10;1.00;;;17.10;99.90;;;;;;5093601;28;20951;-77
2022/08/29 01:21:19;;;;;;;1.47;1.00;;;17.10;99.90;;;;;;5093795;28;20443;-77
2022/08/29 01:23:54;;;;;;;0.83;0.60;;;17.00;99.90;;;;;;5093567;28;20797;-77
2022/08/29 01:26:23;;;;;;;1.90;0.67;;;17.00;99.90;;;;;;5093370;28;20525;-77
2022/08/29 01:28:51;;;;;;;1.87;0.80;;;17.00;99.90;;;;;;5093747;28;20462;-77
2022/08/29 01:31:22;;;;;;;1.73;1.00;;;16.90;99.90;;;;;;5093624;28;20451;-77
2022/08/29 01:33:52;;;;;;;1.80;1.00;;;16.90;99.90;;;;;;5093714;28;20424;-77
2022/08/29 01:36:22;;;;;;;0.80;0.80;;;16.80;99.90;;;;;;5093568;28;20479;-77
2022/08/29 01:38:49;;;;;;;1.27;0.80;;;16.90;99.90;;;;;;5093680;28;20435;-77
2022/08/29 01:41:17;;;;;;;1.20;1.10;;;16.80;99.90;;;;;;5093249;28;20444;-77
2022/08/29 01:43:47;;;;;;;1.30;1.20;;;16.80;99.90;;;;;;5093215;28;20817;-77
2022/08/29 01:46:19;;;;;;;0.83;0.77;;;16.80;99.90;;;;;;5093587;28;20420;-77
2022/08/29 01:48:46;;;;;;;1.77;0.83;;;16.70;99.90;;;;;;5093548;28;20424;-77
2022/08/29 01:51:14;;;;;;;1.40;1.27;;;16.80;99.90;;;;;;5093123;28;20448;-77
2022/08/29 01:53:41;;;;;;;1.47;1.13;;;16.80;99.90;;;;;;5093440;28;20447;-77
2022/08/29 01:56:10;;;;;;;1.23;1.10;;;16.70;99.90;;;;;;5093360;28;20486;-77
2022/08/29 01:58:37;;;;;;;1.83;0.70;;;16.70;99.90;;;;;;5093421;28;20444;-77
2022/08/29 02:01:06;;;;;;;1.13;0.70;;;16.70;99.90;;;;;;5093280;28;20451;-77
2022/08/29 02:03:32;;;;;;;2.50;1.00;;;16.60;99.90;;;;;;5093354;28;20471;-76
2022/08/29 02:06:00;;;;;;;1.33;1.10;;;16.60;99.90;;;;;;5093038;28;20783;-76
2022/08/29 02:08:27;;;;;;;5.80;0.80;;;16.60;99.90;;;;;;5093325;28;20440;-76
2022/08/29 02:10:54;;;;;;;1.67;1.00;;;16.60;99.90;;;;;;5093271;28;20451;-76
2022/08/29 02:13:23;;;;;;;2.20;1.30;;;16.60;99.90;;;;;;5093192;28;20479;-76
2022/08/29 02:15:50;;;;;;;1.47;0.80;;;16.50;99.90;;;;;;5093117;28;20472;-76
2022/08/29 02:18:18;;;;;;;2.40;1.10;;;16.50;99.90;;;;;;5093228;28;20436;-76
2022/08/29 02:20:45;;;;;;;2.43;1.43;;;16.50;99.90;;;;;;5093182;28;20440;-76
2022/08/29 02:23:12;;;;;;;3.03;1.00;;;16.50;99.90;;;;;;5093106;28;20471;-77
2022/08/29 02:25:43;;;;;;;1.63;1.53;;;16.50;99.90;;;;;;5092927;28;20514;-77
2022/08/29 02:28:11;;;;;;;0.70;0.70;;;16.40;99.90;;;;;;5095765;28;20485;-77
2022/08/29 02:30:38;;;;;;;1.70;0.70;;;16.40;99.90;;;;;;5097076;28;20493;-77
2022/08/29 02:33:05;;;;;;;1.13;0.87;;;16.40;99.90;;;;;;5096946;28;20467;-77
2022/08/29 02:35:33;;;;;;;2.00;0.97;;;16.30;99.90;;;;;;5096576;28;21041;-77
2022/08/29 02:38:00;;;;;;;1.37;1.07;;;16.30;99.90;;;;;;5096595;28;20849;-77
2022/08/29 02:40:27;;;;;;;3.47;1.10;;;16.30;99.90;;;;;;5096559;28;20450;-77
2022/08/29 02:42:54;;;;;;;1.50;1.07;;;16.30;99.90;;;;;;5096809;28;20474;-77
2022/08/29 02:45:22;;;;;;;2.60;0.80;;;16.30;99.90;;;;;;5096797;28;20448;-77
2022/08/29 02:47:49;;;;;;;1.60;1.07;;;16.30;99.90;;;;;;5096806;28;20440;-77
2022/08/29 02:50:17;;;;;;;0.83;0.83;;;16.20;99.90;;;;;;5096431;28;20446;-77
2022/08/29 02:52:45;;;;;;;3.03;0.80;;;16.20;99.90;;;;;;5096618;28;20520;-77
2022/08/29 02:55:14;;;;;;;0.70;0.70;;;16.20;99.90;;;;;;5096613;28;20458;-77
2022/08/29 02:57:42;;;;;;;1.93;1.60;;;16.20;99.90;;;;;;5096164;28;20515;-77
2022/08/29 03:00:13;;;;;;;1.97;1.20;;;16.10;99.90;;;;;;5096554;28;20446;-76
2022/08/29 03:02:40;;;;;;;2.17;1.17;;;16.20;99.90;;;;;;5096437;28;20471;-76
2022/08/29 03:05:07;;;;;;;1.30;1.20;;;16.10;99.90;;;;;;5096175;28;20453;-76
2022/08/29 03:07:34;;;;;;;0.80;0.80;;;16.00;99.90;;;;;;5096391;28;20436;-76
2022/08/29 03:10:03;;;;;;;0.70;0.70;;;16.00;99.90;;;;;;5096387;28;20447;-76
2022/08/29 03:12:31;;;;;;;0.70;0.70;;;16.00;99.90;;;;;;5096223;28;20467;-76
2022/08/29 03:14:58;;;;;;;1.10;1.00;;;16.00;99.90;;;;;;5096234;28;20479;-76
2022/08/29 03:17:25;;;;;;;2.27;1.23;;;16.00;99.90;;;;;;5096134;28;20553;-76
2022/08/29 03:19:52;;;;;;;1.27;1.00;;;16.00;99.90;;;;;;5095831;28;20444;-76
2022/08/29 03:22:19;;;;;;;0.70;0.70;;;16.00;99.90;;;;;;5095702;28;21017;-77
2022/08/29 03:24:46;;;;;;;1.33;0.80;;;15.90;99.90;;;;;;5096129;28;20440;-80
2022/08/29 03:27:14;;;;;;;1.20;1.17;;;15.90;99.90;;;;;;5098760;28;20416;-80
2022/08/29 03:29:40;;;;;;;1.07;1.00;;;15.90;99.90;;;;;;5097829;28;20939;-80
2022/08/29 03:32:07;;;;;;;2.00;0.90;;;15.80;99.90;;;;;;5098543;28;20468;-80
2022/08/29 03:34:34;;;;;;;0.80;0.80;;;15.80;99.90;;;;;;5098482;28;20436;-80
2022/08/29 03:37:01;;;;;;;1.20;1.00;;;15.80;99.90;;;;;;5098176;28;20503;-80
2022/08/29 03:39:28;;;;;;;2.60;1.30;;;15.80;99.90;;;;;;5097515;28;20440;-80
2022/08/29 03:41:55;;;;;;;1.00;0.90;;;15.70;99.90;;;;;;5098437;28;20470;-80
2022/08/29 03:44:23;;;;;;;0.80;0.80;;;15.70;99.90;;;;;;5098311;28;20451;-80
2022/08/29 03:46:50;;;;;;;1.20;0.87;;;15.80;99.90;;;;;;5098402;28;20439;-81
2022/08/29 03:49:16;;;;;;;2.73;1.37;;;15.80;99.90;;;;;;5098081;28;20526;-80
2022/08/29 03:51:43;;;;;;;2.53;1.30;;;15.70;99.90;;;;;;5098667;28;20495;-80
2022/08/29 03:54:10;;;;;;;0.90;0.80;;;15.70;99.90;;;;;;5098410;28;20444;-80
2022/08/29 03:56:37;;;;;;;1.07;0.80;;;15.70;99.90;;;;;;5097862;28;20476;-80
2022/08/29 03:59:03;;;;;;;0.67;0.60;;;15.70;99.90;;;;;;5098293;28;20470;-80
2022/08/29 04:01:32;;;;;;;2.40;1.43;;;15.70;99.90;;;;;;5098104;28;20838;-80
2022/08/29 04:03:58;;;;;;;2.70;1.50;;;15.70;99.90;;;;;;5097222;28;20447;-81
2022/08/29 04:06:27;;;;;;;1.40;1.30;;;15.60;99.90;;;;;;5098125;28;20440;-80
2022/08/29 04:08:54;;;;;;;7.20;1.30;;;15.60;99.90;;;;;;5097901;28;20484;-80
2022/08/29 04:11:23;;;;;;;1.30;0.70;;;15.60;99.90;;;;;;5097811;28;20444;-80
2022/08/29 04:13:50;;;;;;;1.10;0.83;;;15.60;99.90;;;;;;5097760;28;20444;-80
2022/08/29 04:16:19;;;;;;;0.70;0.70;;;15.60;99.90;;;;;;5097467;28;20478;-80
2022/08/29 04:18:48;;;;;;;1.70;1.00;;;15.60;99.90;;;;;;5097582;28;20443;-80
2022/08/29 04:21:15;;;;;;;1.60;1.50;;;15.60;99.90;;;;;;5097764;28;20436;-80
2022/08/29 04:23:44;;;;;;;2.73;1.00;;;15.60;99.90;;;;;;5098074;28;20444;-80
2022/08/29 04:26:16;;;;;;;1.30;1.20;;;15.60;99.90;;;;;;5097368;28;20491;-80
2022/08/29 04:28:43;;;;;;;1.70;0.87;;;15.60;99.90;;;;;;5097615;28;20443;-80
2022/08/29 04:31:14;;;;;;;1.53;0.77;;;15.60;99.90;;;;;;5097418;28;20455;-80
2022/08/29 04:33:41;;;;;;;1.50;0.80;;;15.60;99.90;;;;;;5097850;28;20435;-80
2022/08/29 04:36:09;;;;;;;1.43;0.80;;;15.60;99.90;;;;;;5097802;28;20444;-80
2022/08/29 04:38:35;;;;;;;2.10;1.10;;;15.50;99.90;;;;;;5097339;28;20440;-80
2022/08/29 04:41:05;;;;;;;2.03;1.17;;;15.50;99.90;;;;;;5096817;28;20444;-80
2022/08/29 04:43:33;;;;;;;3.00;1.43;;;15.50;99.90;;;;;;5098229;28;20448;-80
2022/08/29 04:46:00;;;;;;;2.00;1.20;;;15.40;99.90;;;;;;5098510;28;20455;-80
2022/08/29 04:48:27;;;;;;;2.13;1.23;;;15.40;99.90;;;;;;5098101;28;20448;-80
2022/08/29 04:50:55;;;;;;;1.33;1.10;;;15.50;99.90;;;;;;5097666;28;20456;-79
2022/08/29 04:53:23;;;;;;;2.60;1.47;;;15.40;99.90;;;;;;5097588;28;20959;-80
2022/08/29 04:55:56;;;;;;;1.10;0.83;;;15.50;99.90;;;;;;5097798;28;20444;-80
2022/08/29 04:58:24;;;;;;;1.23;0.97;;;15.40;99.90;;;;;;5097577;28;20489;-79
2022/08/29 05:00:51;;;;;;;3.70;0.87;;;15.50;99.90;;;;;;5097714;28;20444;-79
2022/08/29 05:03:18;;;;;;;1.00;0.80;;;15.50;99.90;;;;;;5097375;28;20460;-79
2022/08/29 05:05:45;;;;;;;4.87;1.17;;;15.50;99.90;;;;;;5097205;28;20935;-80
2022/08/29 05:08:12;;;;;;;1.60;1.10;;;15.40;99.90;;;;;;5097400;28;20943;-79
2022/08/29 05:10:40;;;;;;;3.80;0.90;;;15.50;99.90;;;;;;5097524;28;20463;-79
2022/08/29 05:13:06;;;;;;;1.53;1.13;;;15.50;99.90;;;;;;5097272;28;20487;-80
2022/08/29 05:15:33;;;;;;;1.87;1.03;;;15.60;99.90;;;;;;5097593;28;20444;-80
2022/08/29 05:18:00;;;;;;;0.60;0.60;;;15.60;99.90;;;;;;5097822;28;20479;-80
2022/08/29 05:20:27;;;;;;;1.13;1.00;;;15.60;99.90;;;;;;5097793;28;20445;-80
2022/08/29 05:22:53;;;;;;;4.60;1.77;;;15.60;99.90;;;;;;5097492;28;20471;-80
2022/08/29 05:25:20;;;;;;;1.00;0.77;;;15.60;99.90;;;;;;5097209;28;20491;-79
2022/08/29 05:27:48;;;;;;;0.80;0.63;;;15.60;99.90;;;;;;5096713;28;20964;-80
2022/08/29 05:30:16;;;;;;;1.30;0.73;;;15.60;99.90;;;;;;5097253;28;20439;-80
2022/08/29 05:32:42;;;;;;;2.73;1.20;;;15.60;99.90;;;;;;5097240;28;20463;-80
2022/08/29 05:35:09;;;;;;;0.83;0.83;;;15.70;99.90;;;;;;5097018;28;20451;-80
2022/08/29 05:37:36;;;;;;;4.17;1.20;;;15.70;99.90;;;;;;5097084;28;20479;-80
2022/08/29 05:40:04;;;;;;;0.90;0.90;;;15.70;99.90;;;;;;5096699;28;20448;-79
2022/08/29 05:42:31;;;;;;;1.70;0.90;;;15.80;99.90;;;;;;5096568;28;20466;-80
2022/08/29 05:44:59;;;;;;;0.90;0.70;;;15.80;99.90;;;;;;5096516;28;20962;-80
2022/08/29 05:47:26;;;;;;;0.50;0.50;;;15.90;99.90;;;;;;5096106;28;20451;-80
2022/08/29 05:49:52;;;;;;;1.40;1.20;;;16.00;99.90;;;;;;5097015;28;20451;-80
2022/08/29 05:52:21;;;;;;;0.87;0.87;;;16.00;99.90;;;;;;5097858;28;20828;-80
2022/08/29 05:54:48;;;;;;;2.43;1.57;;;16.20;99.90;;;;;;5097970;28;20454;-80
2022/08/29 05:57:18;;;;;;;1.10;0.90;;;16.20;99.90;;;;;;5098494;28;20475;-80
2022/08/29 05:59:45;;;;;;;1.40;0.80;;;16.30;99.90;;;;;;5097523;28;20448;-80
2022/08/29 06:02:13;;;;;;;1.57;1.00;;;16.40;99.90;;;;;;5098178;28;20998;-80
2022/08/29 06:04:40;;;;;;;2.20;1.00;;;16.40;99.90;;;;;;5101648;28;20446;-80
2022/08/29 06:07:08;;;;;;;0.93;0.90;;;16.50;99.90;;;;;;5101603;28;20436;-80
2022/08/29 06:09:37;;;;;;;1.13;1.00;;;16.60;99.90;;;;;;5102411;28;20815;-80
2022/08/29 06:12:05;;;;;;;2.53;1.00;;;16.60;99.90;;;;;;5101093;28;20849;-80
2022/08/29 06:14:32;;;;;;;9.70;1.33;;;16.70;99.90;;;;;;5101246;28;20443;-82
2022/08/29 06:16:59;;;;;;;1.87;1.50;;;16.80;99.90;;;;;;5099606;28;20476;-80
2022/08/29 06:19:33;;;;;;;2.00;1.17;;;16.80;99.90;;;;;;5100149;28;20484;-80
2022/08/29 06:22:02;;;;;;;2.53;1.67;;;16.90;99.90;;;;;;5099409;28;20467;-80
2022/08/29 06:24:28;;;;;;;1.13;0.80;;;17.00;99.90;;;;;;5099027;28;20912;-80
2022/08/29 06:26:55;;;;;;;4.60;1.30;;;17.20;99.90;;;;;;5098943;28;20475;-80
2022/08/29 06:29:22;;;;;;;1.33;0.63;;;17.30;99.90;;;;;;5098810;28;20439;-81
2022/08/29 06:31:48;;;;;;;2.73;1.33;;;17.50;99.90;;;;;;5099765;28;20491;-81
2022/08/29 06:34:15;;;;;;;1.47;1.17;;;17.70;99.90;;;;;;5099631;28;20447;-81
2022/08/29 06:36:43;;;;;;;1.10;1.00;;;17.90;99.90;;;;;;5099303;28;20463;-81
2022/08/29 06:39:11;;;;;;;1.07;0.90;;;18.10;99.90;;;;;;5099052;28;20968;-81
2022/08/29 06:41:39;;;;;;;1.00;0.83;;;18.30;99.90;;;;;;5098925;28;20467;-81
2022/08/29 06:44:07;;;;;;;4.60;1.27;;;18.40;99.90;;;;;;5098781;28;20440;-80
2022/08/29 06:46:36;;;;;;;3.67;1.83;;;18.50;99.90;;;;;;5098837;28;20451;-81
2022/08/29 06:49:04;;;;;;;1.30;0.93;;;18.60;99.90;;;;;;5098919;28;20451;-81
2022/08/29 06:51:33;;;;;;;2.20;1.20;;;18.80;99.90;;;;;;5098708;28;20463;-81
2022/08/29 06:54:02;;;;;;;3.63;1.43;;;18.90;99.90;;;;;;5099056;28;20501;-81
2022/08/29 06:56:30;;;;;;;1.30;1.00;;;19.00;99.90;;;;;;5099069;28;20448;-81
2022/08/29 06:58:56;;;;;;;1.97;1.23;;;19.10;99.90;;;;;;5099390;28;20487;-81
2022/08/29 07:01:24;;;;;;;2.43;1.97;;;19.20;99.90;;;;;;5099445;28;20550;-81
2022/08/29 07:03:53;;;;;;;2.57;1.97;;;19.20;99.90;;;;;;5099174;28;20444;-81
2022/08/29 07:06:20;;;;;;;1.43;1.33;;;19.30;99.90;;;;;;5099299;28;20542;-81
2022/08/29 07:08:47;;;;;;;1.30;0.80;;;19.40;99.90;;;;;;5098664;28;20444;-81
2022/08/29 07:11:15;;;;;;;1.13;0.90;;;19.50;99.90;;;;;;5098396;28;20455;-81
2022/08/29 07:13:42;;;;;;;3.77;1.33;;;19.60;99.90;;;;;;5097514;28;20522;-81
2022/08/29 07:16:09;;;;;;;1.20;1.03;;;19.70;99.90;;;;;;5097981;28;20484;-81
2022/08/29 07:18:36;;;;;;;2.50;1.97;;;19.70;99.90;;;;;;5098853;28;20479;-81
2022/08/29 07:21:05;;;;;;;2.70;1.23;;;19.70;99.90;;;;;;5099330;28;20432;-81
2022/08/29 07:23:32;;;;;;;2.33;1.60;;;19.80;99.90;;;;;;5099090;28;20448;-81
2022/08/29 07:26:07;;;;;;;1.43;1.03;;;20.10;99.90;;;;;;5098749;28;20829;-81
2022/08/29 07:28:35;;;;;;;2.17;1.57;;;20.20;99.90;;;;;;5098658;28;20423;-81
2022/08/29 07:31:02;;;;;;;2.70;2.17;;;20.30;99.90;;;;;;5098821;28;20805;-81
2022/08/29 07:33:28;;;;;;;1.20;1.10;;;20.30;99.90;;;;;;5098870;28;20504;-81
2022/08/29 07:35:55;;;;;;;0.90;0.90;;;20.50;99.90;;;;;;5098608;28;20432;-81
2022/08/29 07:38:22;;;;;;;1.53;0.90;;;20.60;99.90;;;;;;5098557;28;20471;-81
2022/08/29 07:40:56;;;;;;;1.47;1.37;;;20.70;99.90;;;;;;5097181;28;20452;-82
2022/08/29 07:43:23;;;;;;;1.93;1.20;;;20.90;99.90;;;;;;5098315;28;20451;-82
2022/08/29 07:45:51;;;;;;;1.13;1.00;;;21.10;99.90;;;;;;5098162;28;20458;-81
2022/08/29 07:48:18;;;;;;;2.87;1.77;;;21.30;99.90;;;;;;5098065;28;20530;-81
2022/08/29 07:50:44;;;;;;;2.60;1.37;;;21.30;99.90;;;;;;5097304;28;20958;-82
2022/08/29 07:53:11;;;;;;;1.60;1.37;;;21.30;99.90;;;;;;5097573;28;20475;-81
2022/08/29 07:55:38;;;;;;;4.33;1.70;;;21.50;99.90;;;;;;5098012;28;20454;-81
2022/08/29 07:58:05;;;;;;;2.30;1.97;;;21.50;99.90;;;;;;5096782;28;20479;-81
2022/08/29 08:00:32;;;;;;;1.30;1.20;;;21.40;99.90;;;;;;5097250;28;20451;-81
2022/08/29 08:03:01;;;;;;;3.33;1.00;;;21.50;99.90;;;;;;5096321;28;20554;-81
2022/08/29 08:05:28;;;;;;;2.40;1.50;;;21.70;99.90;;;;;;5096554;28;20788;-81
2022/08/29 08:07:55;;;;;;;2.00;1.40;;;21.70;99.90;;;;;;5096573;28;20440;-81
2022/08/29 08:10:22;;;;;;;2.40;1.83;;;21.80;99.90;;;;;;5096825;28;20443;-81
2022/08/29 08:12:50;;;;;;;4.97;1.67;;;21.80;99.90;;;;;;5096721;28;20463;-82
2022/08/29 08:15:18;;;;;;;1.57;1.47;;;22.00;99.90;;;;;;5096348;28;20490;-81
2022/08/29 08:17:44;;;;;;;1.53;1.43;;;22.20;99.90;;;;;;5096010;28;20482;-81
2022/08/29 08:20:14;;;;;;;2.33;1.60;;;22.40;99.90;;;;;;5096582;28;20439;-81
2022/08/29 08:22:41;;;;;;;2.87;1.30;;;22.50;99.90;;;;;;5096414;28;20550;-81
2022/08/29 08:25:09;;;;;;;5.33;2.20;;;22.70;99.90;;;;;;5095272;28;20483;-80
2022/08/29 08:27:35;;;;;;;1.43;1.20;;;22.80;99.90;;;;;;5095639;28;20942;-81
2022/08/29 08:30:02;;;;;;;1.63;1.53;;;23.00;99.90;;;;;;5095978;28;20446;-82
2022/08/29 08:32:29;;;;;;;2.00;1.43;;;23.20;99.90;;;;;;5095844;28;20463;-82
2022/08/29 08:34:56;;;;;;;1.47;1.33;;;23.30;99.90;;;;;;5095305;28;20444;-81
2022/08/29 08:37:24;;;;;;;1.83;1.50;;;23.30;99.90;;;;;;5095362;28;20807;-82
2022/08/29 08:39:55;;;;;;;1.17;1.07;;;23.50;99.90;;;;;;5095085;28;20664;-82
2022/08/29 08:42:32;;;;;;;1.63;1.20;;;23.60;99.90;;;;;;5095644;28;20463;-82
2022/08/29 08:45:07;;;;;;;2.17;1.70;;;23.90;99.90;;;;;;5095552;28;20437;-82
2022/08/29 08:47:38;;;;;;;1.67;1.00;;;23.90;99.90;;;;;;5095499;28;20431;-82
2022/08/29 08:50:11;;;;;;;1.27;0.97;;;24.00;99.90;;;;;;5094998;28;20618;-82
2022/08/29 08:52:45;;;;;;;1.57;1.10;;;24.00;99.90;;;;;;5095044;28;20463;-82
2022/08/29 08:55:20;;;;;;;2.87;1.20;;;24.10;99.90;;;;;;5094560;28;20645;-82
2022/08/29 08:57:54;;;;;;;1.57;1.30;;;24.40;99.90;;;;;;5094398;28;20209;-82
2022/08/29 09:00:21;;;;;;;1.33;1.23;;;24.60;99.90;;;;;;5094481;28;20276;-83
2022/08/29 09:03:02;;;;;;;0.93;0.93;;;24.80;99.90;;;;;;5095012;28;20228;-82
2022/08/29 09:05:39;;;;;;;1.55;1.20;;;25.10;99.90;;;;;;5094443;28;20225;-82
2022/08/29 09:08:15;;;;;;;1.17;0.98;;;25.40;99.90;;;;;;5095275;28;20301;-81
2022/08/29 09:10:49;;;;;;;2.22;1.20;;;25.80;99.90;;;;;;5094488;28;20189;-81
2022/08/29 09:13:29;;;;;;;1.33;0.95;;;25.90;99.90;;;;;;5094847;28;20217;-82
2022/08/29 09:15:59;;;;;;;2.97;1.80;;;25.90;99.90;;;;;;5094707;28;20212;-82
2022/08/29 09:18:31;;;;;;;2.10;1.45;;;26.00;99.90;;;;;;5094953;28;20236;-83
2022/08/29 09:20:59;;;;;;;1.42;1.23;;;26.00;99.90;;;;;;5095153;28;20189;-82
2022/08/29 09:23:34;;;;;;;1.02;1.00;;;26.10;99.90;;;;;;5094860;28;20662;-82
2022/08/29 09:26:01;;;;;;;2.30;1.13;;;26.10;99.90;;;;;;5093918;28;20278;-83
2022/08/29 09:28:27;;;;;;;2.65;1.45;;;26.20;99.90;;;;;;5095170;28;20309;-82
2022/08/29 09:31:16;;;;;;;1.00;1.00;;;26.10;99.90;;;;;;5095681;28;20205;-82
2022/08/29 09:33:45;;;;;;;1.50;1.40;;;25.90;99.90;;;;;;5094421;28;20201;-82
2022/08/29 09:36:14;;;;;;;1.13;0.85;;;25.80;99.90;;;;;;5093730;28;20223;-82
2022/08/29 09:38:42;;;;;;;1.35;1.08;;;25.80;99.90;;;;;;5093378;28;20709;-83
2022/08/29 09:41:10;;;;;;;1.10;1.00;;;25.80;99.90;;;;;;5094300;28;20201;-83
2022/08/29 09:43:47;;;;;;;2.72;1.40;;;25.80;99.90;;;;;;5093588;28;20205;-80
2022/08/29 09:46:19;;;;;;;1.70;1.15;;;25.60;99.90;;;;;;5093871;28;20189;-86
2022/08/29 09:48:47;;;;;;;1.52;1.20;;;25.60;99.90;;;;;;5093614;28;20527;-84
2022/08/29 09:51:25;;;;;;;1.15;1.15;;;25.70;99.90;;;;;;5093437;28;20197;-84
2022/08/29 09:53:54;;;;;;;1.33;1.23;;;25.60;99.90;;;;;;5093203;28;20190;-84
2022/08/29 09:56:24;;;;;;;1.38;0.80;;;25.60;99.90;;;;;;5093480;28;20205;-83
2022/08/29 09:59:02;;;;;;;1.20;1.10;;;25.70;99.90;;;;;;5093330;28;20563;-84
2022/08/29 10:01:32;;;;;;;1.92;1.10;;;25.60;99.90;;;;;;5092990;28;20765;-84
2022/08/29 10:04:01;;;;;;;1.30;1.20;;;25.70;99.90;;;;;;5093793;28;20208;-83
2022/08/29 10:06:30;;;;;;;1.92;1.20;;;25.80;99.90;;;;;;5094557;28;20201;-84
2022/08/29 10:09:05;;;;;;;1.10;0.82;;;25.80;99.90;;;;;;5093008;28;20661;-84
2022/08/29 10:11:37;;;;;;;1.02;0.82;;;25.70;99.90;;;;;;5093376;28;20228;-85
2022/08/29 10:14:08;;;;;;;1.10;1.10;;;25.70;99.90;;;;;;5093454;28;20185;-85
2022/08/29 10:16:41;;;;;;;1.20;1.10;;;25.80;99.90;;;;;;5093662;28;20197;-84
2022/08/29 10:19:12;;;;;;;1.77;1.25;;;25.80;99.90;;;;;;5093033;28;20695;-84
2022/08/29 10:21:48;;;;;;;1.45;1.35;;;25.70;99.90;;;;;;5093168;28;20232;-84
2022/08/29 10:24:27;;;;;;;2.45;1.20;;;25.60;99.90;;;;;;5093342;28;20192;-84
2022/08/29 10:27:01;;;;;;;1.98;1.42;;;25.70;99.90;;;;;;5092799;28;20229;-85
2022/08/29 10:29:46;;;;;;;2.20;1.05;;;26.00;99.90;;;;;;5093347;28;20178;-83
2022/08/29 10:32:24;;;;;;;1.38;0.88;;;26.00;99.90;;;;;;5093095;28;20221;-84
2022/08/29 10:35:03;;;;;;;2.38;1.20;;;26.20;99.90;;;;;;5093686;28;20186;-84
2022/08/29 10:37:43;;;;;;;1.58;0.80;;;26.10;99.90;;;;;;5093101;28;20221;-84
2022/08/29 10:40:16;;;;;;;1.50;0.98;;;25.90;99.90;;;;;;5093812;28;20209;-82
2022/08/29 10:42:46;;;;;;;1.38;1.02;;;25.80;99.90;;;;;;5092694;28;20568;-82
2022/08/29 10:45:17;;;;;;;1.10;1.00;;;25.80;99.90;;;;;;5092653;28;20198;-82
2022/08/29 10:47:51;;;;;;;2.25;1.25;;;25.90;99.90;;;;;;5092924;28;20692;-82
2022/08/29 10:50:31;;;;;;;1.70;0.90;;;26.10;99.90;;;;;;5096938;28;20181;-83
2022/08/29 10:53:06;;;;;;;0.93;0.82;;;26.20;99.90;;;;;;5096665;28;20217;-82
2022/08/29 10:55:47;;;;;;;1.20;0.82;;;26.00;99.90;;;;;;5096709;28;20196;-83
2022/08/29 10:58:26;;;;;;;1.92;1.38;;;25.70;99.60;;;;;;5096641;28;20192;-83
2022/08/29 11:00:59;;;;;;;1.42;1.13;;;25.60;99.90;;;;;;5096976;28;20224;-85
2022/08/29 11:03:38;;;;;;;1.90;1.20;;;25.70;99.90;;;;;;5096685;28;20282;-85
2022/08/29 11:06:11;;;;;;;1.27;1.20;;;25.80;99.90;;;;;;5096721;28;20212;-86
2022/08/29 11:08:44;;;;;;;2.38;1.02;;;26.00;99.90;;;;;;5096517;28;20182;-85
2022/08/29 11:11:15;;;;;;;1.67;0.85;;;26.00;99.90;;;;;;5096409;28;20192;-85
2022/08/29 11:13:46;;;;;;;1.40;1.00;;;26.00;99.60;;;;;;5096199;28;20186;-85
2022/08/29 11:16:18;;;;;;;4.32;1.00;;;26.00;99.90;;;;;;5096450;28;20223;-85
2022/08/29 11:18:50;;;;;;;1.48;0.80;;;26.10;99.70;;;;;;5096469;28;20212;-85
2022/08/29 11:21:35;;;;;;;1.35;0.90;;;26.10;99.70;;;;;;5096025;28;20641;-77
2022/08/29 11:24:03;;;;;;;1.52;1.10;;;26.20;99.50;;;;;;5095955;28;20728;-79
2022/08/29 11:26:44;;;;;;;1.42;1.02;;;26.00;99.40;;;;;;5095848;28;20229;-79
2022/08/29 11:29:23;;;;;;;1.67;1.13;;;25.90;99.40;;;;;;5096060;28;20652;-85
2022/08/29 11:31:56;;;;;;;2.80;1.33;;;25.80;99.40;;;;;;5096096;28;20221;-85
2022/08/29 11:34:36;;;;;;;5.45;1.25;;;25.80;99.90;;;;;;5096119;28;20182;-85
2022/08/29 11:37:27;;;;;;;1.10;1.00;;;25.80;99.90;;;;;;5096171;28;20186;-85
2022/08/29 11:40:00;;;;;;;2.35;1.63;;;25.90;99.90;;;;;;5095939;28;20210;-83
2022/08/29 11:42:33;;;;;;;1.35;0.80;;;26.10;99.50;;;;;;5095513;28;20683;-83
2022/08/29 11:45:03;;;;;;;1.15;1.00;;;26.30;99.10;;;;;;5095822;28;20185;-83
2022/08/29 11:47:39;;;;;;;2.70;1.30;;;26.40;99.00;;;;;;5095940;28;20201;-83
2022/08/29 11:50:22;;;;;;;1.77;0.90;;;26.30;99.50;;;;;;5095476;28;20200;-83
2022/08/29 11:52:54;;;;;;;1.40;1.30;;;26.30;99.80;;;;;;5095598;28;20248;-83
2022/08/29 11:55:29;;;;;;;4.53;1.30;;;26.30;98.60;;;;;;5095664;28;20185;-83
2022/08/29 11:58:44;;;;;;;1.05;1.05;;;26.30;98.60;;;;;;5095589;28;20189;-83
2022/08/29 12:01:12;;;;;;;1.23;0.88;;;26.20;98.20;;;;;;5094400;28;20660;-83
2022/08/29 12:03:48;;;;;;;1.83;0.98;;;26.00;98.20;;;;;;5095114;28;20202;-83
2022/08/29 12:06:37;;;;;;;1.13;0.95;;;25.70;98.40;;;;;;5095458;28;20536;-83
2022/08/29 12:09:24;;;;;;;1.00;0.70;;;25.50;98.80;;;;;;5095390;28;20185;-83
2022/08/29 12:12:17;;;;;;;1.40;0.75;;;25.60;98.80;;;;;;5092809;28;20232;-82
2022/08/29 12:14:47;;;;;;;0.95;0.85;;;25.80;98.10;;;;;;5081020;28;20201;-83
2022/08/29 12:17:44;;;;;;;2.03;1.38;;;25.90;98.10;;;;;;5094863;28;20688;-83
2022/08/29 12:20:18;;;;;;;1.15;1.00;;;26.00;98.60;;;;;;5095098;28;20232;-83
2022/08/29 12:22:54;;;;;;;1.33;1.10;;;26.20;99.20;;;;;;5095037;28;20261;-83
2022/08/29 12:25:44;;;;;;;2.33;1.05;;;26.20;99.40;;;;;;5094526;28;20719;-83
2022/08/29 12:28:31;;;;;;;2.10;1.27;;;26.10;99.30;;;;;;5095004;28;20186;-83
2022/08/29 12:31:37;;;;;;;1.00;0.90;;;26.10;99.40;;;;;;5094902;28;20182;-83
2022/08/29 12:34:24;;;;;;;1.83;0.98;;;26.10;98.90;;;;;;5058594;28;20563;-83
2022/08/29 12:37:22;;;;;;;1.13;1.02;;;26.00;98.30;;;;;;5094837;28;20189;-83
2022/08/29 12:40:13;;;;;;;1.13;1.02;;;25.80;98.00;;;;;;5092007;28;20222;-83
2022/08/29 12:42:47;;;;;;;4.68;1.65;;;25.80;98.00;;;;;;5094681;28;20224;-83
2022/08/29 12:45:19;;;;;;;1.00;0.88;;;25.70;98.20;;;;;;5094640;28;20181;-83
2022/08/29 12:47:50;;;;;;;0.80;0.80;;;25.60;98.40;;;;;;5094652;28;20185;-83
2022/08/29 12:50:21;;;;;;;2.17;1.52;;;25.60;98.10;;;;;;5094593;28;20182;-82
2022/08/29 12:52:59;;;;;;;1.58;0.90;;;25.50;97.90;;;;;;5094403;28;20313;-83
2022/08/29 12:55:28;;;;;;;1.15;0.93;;;25.40;97.50;;;;;;5094469;28;20189;-83
2022/08/29 12:57:56;;;;;;;0.70;0.70;;;25.30;98.10;;;;;;5094130;28;20565;-83
2022/08/29 13:00:25;;;;;;;1.02;1.02;;;25.30;97.20;;;;;;5094269;28;20217;-83
2022/08/29 13:03:00;;;;;;;1.17;1.00;;;25.20;97.40;;;;;;5093893;28;20712;-83
2022/08/29 13:05:28;;;;;;;1.92;1.10;;;25.20;97.40;;;;;;5094274;28;20546;-83
2022/08/29 13:07:57;;;;;;;1.20;1.10;;;25.30;97.90;;;;;;5093906;28;20201;-82